sensor_id;sensor_type;location;lat;lon;timestamp;temperature;humidity
18321;DHT22;54904;54.350;18.664;2022-10-22T00:01:41;11.70;99.90
18321;DHT22;54904;54.350;18.664;2022-10-22T00:04:08;11.70;99.90
18321;DHT22;54904;54.350;18.664;2022-10-22T00:06:36;11.80;99.90
18321;DHT22;54904;54.350;18.664;2022-10-22T00:09:04;11.70;99.90
18321;DHT22;54904;54.350;18.664;2022-10-22T00:11:31;11.80;99.90
18321;DHT22;54904;54.350;18.664;2022-10-22T00:13:59;11.80;99.90
18321;DHT22;54904;54.350;18.664;2022-10-22T00:16:26;11.70;99.90
18321;DHT22;54904;54.350;18.664;2022-10-22T00:18:53;11.80;99.90
18321;DHT22;54904;54.350;18.664;2022-10-22T00:21:21;11.80;99.90
18321;DHT22;54904;54.350;18.664;2022-10-22T00:23:50;11.80;99.90
18321;DHT22;54904;54.350;18.664;2022-10-22T00:26:17;11.80;99.90
18321;DHT22;54904;54.350;18.664;2022-10-22T00:28:44;11.80;99.90
18321;DHT22;54904;54.350;18.664;2022-10-22T00:31:11;11.80;99.90
18321;DHT22;54904;54.350;18.664;2022-10-22T00:33:40;11.80;99.90
18321;DHT22;54904;54.350;18.664;2022-10-22T00:36:08;11.80;99.90
18321;DHT22;54904;54.350;18.664;2022-10-22T00:38:35;11.80;99.90
18321;DHT22;54904;54.350;18.664;2022-10-22T00:41:04;11.80;99.90
18321;DHT22;54904;54.350;18.664;2022-10-22T00:43:31;11.80;99.90
18321;DHT22;54904;54.350;18.664;2022-10-22T00:45:59;11.80;99.90
18321;DHT22;54904;54.350;18.664;2022-10-22T00:48:28;11.80;99.90
18321;DHT22;54904;54.350;18.664;2022-10-22T00:50:59;11.80;99.90
18321;DHT22;54904;54.350;18.664;2022-10-22T00:53:30;11.80;99.90
18321;DHT22;54904;54.350;18.664;2022-10-22T00:55:58;11.80;99.90
18321;DHT22;54904;54.350;18.664;2022-10-22T00:58:29;11.80;99.90
18321;DHT22;54904;54.350;18.664;2022-10-22T01:00:57;11.80;99.90
18321;DHT22;54904;54.350;18.664;2022-10-22T01:03:24;11.80;99.90
18321;DHT22;54904;54.350;18.664;2022-10-22T01:05:55;11.80;99.90
18321;DHT22;54904;54.350;18.664;2022-10-22T01:08:27;11.80;99.90
18321;DHT22;54904;54.350;18.664;2022-10-22T01:11:07;11.80;99.90
18321;DHT22;54904;54.350;18.664;2022-10-22T01:13:48;11.80;99.90
18321;DHT22;54904;54.350;18.664;2022-10-22T01:16:23;11.80;99.90
18321;DHT22;54904;54.350;18.664;2022-10-22T01:19:00;11.80;99.90
18321;DHT22;54904;54.350;18.664;2022-10-22T01:21:33;11.70;99.90
18321;DHT22;54904;54.350;18.664;2022-10-22T01:24:42;11.70;99.90
18321;DHT22;54904;54.350;18.664;2022-10-22T01:27:28;11.80;99.90
18321;DHT22;54904;54.350;18.664;2022-10-22T01:30:01;11.80;99.90
18321;DHT22;54904;54.350;18.664;2022-10-22T01:32:32;11.80;99.90
18321;DHT22;54904;54.350;18.664;2022-10-22T01:35:04;11.80;99.90
18321;DHT22;54904;54.350;18.664;2022-10-22T01:37:35;11.80;99.90
18321;DHT22;54904;54.350;18.664;2022-10-22T01:40:05;11.80;99.90
18321;DHT22;54904;54.350;18.664;2022-10-22T01:42:33;11.80;99.90
18321;DHT22;54904;54.350;18.664;2022-10-22T01:45:07;11.80;99.90
18321;DHT22;54904;54.350;18.664;2022-10-22T01:47:42;11.80;99.90
18321;DHT22;54904;54.350;18.664;2022-10-22T01:50:29;11.80;99.90
18321;DHT22;54904;54.350;18.664;2022-10-22T01:53:17;11.70;99.90
18321;DHT22;54904;54.350;18.664;2022-10-22T01:55:56;11.70;99.90
18321;DHT22;54904;54.350;18.664;2022-10-22T01:58:37;11.60;99.90
18321;DHT22;54904;54.350;18.664;2022-10-22T02:01:12;11.60;99.90
18321;DHT22;54904;54.350;18.664;2022-10-22T02:03:45;11.60;99.90
18321;DHT22;54904;54.350;18.664;2022-10-22T02:06:17;11.50;99.90
18321;DHT22;54904;54.350;18.664;2022-10-22T02:08:46;11.50;99.90
18321;DHT22;54904;54.350;18.664;2022-10-22T02:11:15;11.60;99.90
18321;DHT22;54904;54.350;18.664;2022-10-22T02:13:46;11.60;99.90
18321;DHT22;54904;54.350;18.664;2022-10-22T02:16:17;11.50;99.90
18321;DHT22;54904;54.350;18.664;2022-10-22T02:18:45;11.50;99.90
18321;DHT22;54904;54.350;18.664;2022-10-22T02:21:14;11.50;99.90
18321;DHT22;54904;54.350;18.664;2022-10-22T02:23:41;11.60;99.90
18321;DHT22;54904;54.350;18.664;2022-10-22T02:26:15;11.60;99.90
18321;DHT22;54904;54.350;18.664;2022-10-22T02:28:54;11.50;99.90
18321;DHT22;54904;54.350;18.664;2022-10-22T02:31:27;11.60;99.90
18321;DHT22;54904;54.350;18.664;2022-10-22T02:33:59;11.60;99.90
18321;DHT22;54904;54.350;18.664;2022-10-22T02:36:30;11.60;99.90
18321;DHT22;54904;54.350;18.664;2022-10-22T02:38:58;11.50;99.90
18321;DHT22;54904;54.350;18.664;2022-10-22T02:41:26;11.60;99.90
18321;DHT22;54904;54.350;18.664;2022-10-22T02:43:54;11.60;99.90
18321;DHT22;54904;54.350;18.664;2022-10-22T02:46:23;11.60;99.90
18321;DHT22;54904;54.350;18.664;2022-10-22T02:48:51;11.70;99.90
18321;DHT22;54904;54.350;18.664;2022-10-22T02:51:18;11.70;99.90
18321;DHT22;54904;54.350;18.664;2022-10-22T02:53:45;11.70;99.90
18321;DHT22;54904;54.350;18.664;2022-10-22T02:56:13;11.80;99.90
18321;DHT22;54904;54.350;18.664;2022-10-22T02:58:40;11.80;99.90
18321;DHT22;54904;54.350;18.664;2022-10-22T03:01:07;11.80;99.90
18321;DHT22;54904;54.350;18.664;2022-10-22T03:03:36;11.80;99.90
18321;DHT22;54904;54.350;18.664;2022-10-22T03:06:03;11.80;99.90
18321;DHT22;54904;54.350;18.664;2022-10-22T03:08:30;11.80;99.90
18321;DHT22;54904;54.350;18.664;2022-10-22T03:10:58;11.80;99.90
18321;DHT22;54904;54.350;18.664;2022-10-22T03:13:25;11.80;99.90
18321;DHT22;54904;54.350;18.664;2022-10-22T03:15:52;11.80;99.90
18321;DHT22;54904;54.350;18.664;2022-10-22T03:18:19;11.90;99.90
18321;DHT22;54904;54.350;18.664;2022-10-22T03:20:48;11.90;99.90
18321;DHT22;54904;54.350;18.664;2022-10-22T03:23:17;11.90;99.90
18321;DHT22;54904;54.350;18.664;2022-10-22T03:25:46;11.90;99.90
18321;DHT22;54904;54.350;18.664;2022-10-22T03:28:15;11.90;99.90
18321;DHT22;54904;54.350;18.664;2022-10-22T03:30:43;11.90;99.90
18321;DHT22;54904;54.350;18.664;2022-10-22T03:33:10;11.90;99.90
18321;DHT22;54904;54.350;18.664;2022-10-22T03:35:41;11.90;99.90
18321;DHT22;54904;54.350;18.664;2022-10-22T03:38:11;11.90;99.90
18321;DHT22;54904;54.350;18.664;2022-10-22T03:40:39;11.90;99.90
18321;DHT22;54904;54.350;18.664;2022-10-22T03:43:07;11.90;99.90
18321;DHT22;54904;54.350;18.664;2022-10-22T03:45:34;11.90;99.90
18321;DHT22;54904;54.350;18.664;2022-10-22T03:48:01;11.90;99.90
18321;DHT22;54904;54.350;18.664;2022-10-22T03:50:28;11.90;99.90
18321;DHT22;54904;54.350;18.664;2022-10-22T03:52:56;11.90;99.90
18321;DHT22;54904;54.350;18.664;2022-10-22T03:55:26;11.90;99.90
18321;DHT22;54904;54.350;18.664;2022-10-22T03:57:53;11.90;99.90
18321;DHT22;54904;54.350;18.664;2022-10-22T04:00:20;11.90;99.90
18321;DHT22;54904;54.350;18.664;2022-10-22T04:02:47;11.90;99.90
18321;DHT22;54904;54.350;18.664;2022-10-22T04:05:15;11.90;99.90
18321;DHT22;54904;54.350;18.664;2022-10-22T04:07:42;11.90;99.90
18321;DHT22;54904;54.350;18.664;2022-10-22T04:10:09;11.90;99.90
18321;DHT22;54904;54.350;18.664;2022-10-22T04:12:38;11.90;99.90
18321;DHT22;54904;54.350;18.664;2022-10-22T04:15:06;11.90;99.90
18321;DHT22;54904;54.350;18.664;2022-10-22T04:17:34;11.90;99.90
18321;DHT22;54904;54.350;18.664;2022-10-22T04:20:03;11.90;99.90
18321;DHT22;54904;54.350;18.664;2022-10-22T04:22:32;11.90;99.90
18321;DHT22;54904;54.350;18.664;2022-10-22T04:24:59;11.90;99.90
18321;DHT22;54904;54.350;18.664;2022-10-22T04:27:29;11.90;99.90
18321;DHT22;54904;54.350;18.664;2022-10-22T04:29:58;11.90;99.90
18321;DHT22;54904;54.350;18.664;2022-10-22T04:32:25;11.80;99.90
18321;DHT22;54904;54.350;18.664;2022-10-22T04:34:53;11.80;99.90
18321;DHT22;54904;54.350;18.664;2022-10-22T04:37:20;11.80;99.90
18321;DHT22;54904;54.350;18.664;2022-10-22T04:39:47;11.90;99.90
18321;DHT22;54904;54.350;18.664;2022-10-22T04:42:14;11.90;99.90
18321;DHT22;54904;54.350;18.664;2022-10-22T04:44:42;11.90;99.90
18321;DHT22;54904;54.350;18.664;2022-10-22T04:47:10;11.80;99.90
18321;DHT22;54904;54.350;18.664;2022-10-22T04:49:37;11.80;99.90
18321;DHT22;54904;54.350;18.664;2022-10-22T04:52:05;11.80;99.90
18321;DHT22;54904;54.350;18.664;2022-10-22T04:54:32;11.80;99.90
18321;DHT22;54904;54.350;18.664;2022-10-22T04:56:59;11.80;99.90
18321;DHT22;54904;54.350;18.664;2022-10-22T04:59:26;11.80;99.90
18321;DHT22;54904;54.350;18.664;2022-10-22T05:01:53;11.80;99.90
18321;DHT22;54904;54.350;18.664;2022-10-22T05:04:22;11.80;99.90
18321;DHT22;54904;54.350;18.664;2022-10-22T05:06:49;11.80;99.90
18321;DHT22;54904;54.350;18.664;2022-10-22T05:09:19;11.70;99.90
18321;DHT22;54904;54.350;18.664;2022-10-22T05:11:48;11.80;99.90
18321;DHT22;54904;54.350;18.664;2022-10-22T05:14:17;11.80;99.90
18321;DHT22;54904;54.350;18.664;2022-10-22T05:16:45;11.80;99.90
18321;DHT22;54904;54.350;18.664;2022-10-22T05:19:16;12.40;99.90
18321;DHT22;54904;54.350;18.664;2022-10-22T05:21:45;11.80;99.90
18321;DHT22;54904;54.350;18.664;2022-10-22T05:24:13;11.80;99.90
18321;DHT22;54904;54.350;18.664;2022-10-22T05:26:40;11.80;99.90
18321;DHT22;54904;54.350;18.664;2022-10-22T05:29:07;11.80;99.90
18321;DHT22;54904;54.350;18.664;2022-10-22T05:31:35;11.80;99.90
18321;DHT22;54904;54.350;18.664;2022-10-22T05:34:03;11.80;99.90
18321;DHT22;54904;54.350;18.664;2022-10-22T05:36:30;11.80;99.90
18321;DHT22;54904;54.350;18.664;2022-10-22T05:38:59;11.80;99.90
18321;DHT22;54904;54.350;18.664;2022-10-22T05:41:27;11.80;99.90
18321;DHT22;54904;54.350;18.664;2022-10-22T05:43:55;11.90;99.90
18321;DHT22;54904;54.350;18.664;2022-10-22T05:46:24;11.90;99.90
18321;DHT22;54904;54.350;18.664;2022-10-22T05:48:53;11.90;99.90
18321;DHT22;54904;54.350;18.664;2022-10-22T05:51:20;11.90;99.90
18321;DHT22;54904;54.350;18.664;2022-10-22T05:53:51;11.90;99.90
18321;DHT22;54904;54.350;18.664;2022-10-22T05:56:21;11.90;99.90
18321;DHT22;54904;54.350;18.664;2022-10-22T05:58:48;11.90;99.90
18321;DHT22;54904;54.350;18.664;2022-10-22T06:01:17;11.90;99.90
18321;DHT22;54904;54.350;18.664;2022-10-22T06:03:46;11.90;99.90
18321;DHT22;54904;54.350;18.664;2022-10-22T06:06:19;11.90;99.90
18321;DHT22;54904;54.350;18.664;2022-10-22T06:08:48;11.80;99.90
18321;DHT22;54904;54.350;18.664;2022-10-22T06:11:17;11.80;99.90
18321;DHT22;54904;54.350;18.664;2022-10-22T06:13:47;11.80;99.90
18321;DHT22;54904;54.350;18.664;2022-10-22T06:16:15;11.80;99.90
18321;DHT22;54904;54.350;18.664;2022-10-22T06:18:42;11.80;99.90
18321;DHT22;54904;54.350;18.664;2022-10-22T06:21:11;11.80;99.90
18321;DHT22;54904;54.350;18.664;2022-10-22T06:23:39;11.80;99.90
18321;DHT22;54904;54.350;18.664;2022-10-22T06:26:07;11.80;99.90
18321;DHT22;54904;54.350;18.664;2022-10-22T06:28:36;11.80;99.90
18321;DHT22;54904;54.350;18.664;2022-10-22T06:31:05;11.80;99.90
18321;DHT22;54904;54.350;18.664;2022-10-22T06:33:33;11.80;99.90
18321;DHT22;54904;54.350;18.664;2022-10-22T06:36:12;11.80;99.90
18321;DHT22;54904;54.350;18.664;2022-10-22T06:38:40;11.90;99.90
18321;DHT22;54904;54.350;18.664;2022-10-22T06:41:09;11.80;99.90
18321;DHT22;54904;54.350;18.664;2022-10-22T06:43:36;11.90;99.90
18321;DHT22;54904;54.350;18.664;2022-10-22T06:46:07;11.90;99.90
18321;DHT22;54904;54.350;18.664;2022-10-22T06:48:36;11.90;99.90
18321;DHT22;54904;54.350;18.664;2022-10-22T06:51:06;11.90;99.90
18321;DHT22;54904;54.350;18.664;2022-10-22T06:53:34;11.90;99.90
18321;DHT22;54904;54.350;18.664;2022-10-22T06:56:04;11.90;99.90
18321;DHT22;54904;54.350;18.664;2022-10-22T06:58:32;11.90;99.90
18321;DHT22;54904;54.350;18.664;2022-10-22T07:01:02;11.90;99.90
18321;DHT22;54904;54.350;18.664;2022-10-22T07:03:31;11.90;99.90
18321;DHT22;54904;54.350;18.664;2022-10-22T07:05:59;11.90;99.90
18321;DHT22;54904;54.350;18.664;2022-10-22T07:08:27;11.90;99.90
18321;DHT22;54904;54.350;18.664;2022-10-22T07:10:54;11.90;99.90
18321;DHT22;54904;54.350;18.664;2022-10-22T07:13:23;11.90;99.90
18321;DHT22;54904;54.350;18.664;2022-10-22T07:15:54;11.90;99.90
18321;DHT22;54904;54.350;18.664;2022-10-22T07:18:21;11.90;99.90
18321;DHT22;54904;54.350;18.664;2022-10-22T07:20:50;12.00;99.90
18321;DHT22;54904;54.350;18.664;2022-10-22T07:23:17;12.00;99.90
18321;DHT22;54904;54.350;18.664;2022-10-22T07:25:44;12.00;99.90
18321;DHT22;54904;54.350;18.664;2022-10-22T07:28:11;12.00;99.90
18321;DHT22;54904;54.350;18.664;2022-10-22T07:30:39;12.10;99.90
18321;DHT22;54904;54.350;18.664;2022-10-22T07:33:07;12.10;99.90
18321;DHT22;54904;54.350;18.664;2022-10-22T07:35:36;12.10;99.90
18321;DHT22;54904;54.350;18.664;2022-10-22T07:38:06;12.00;99.90
18321;DHT22;54904;54.350;18.664;2022-10-22T07:40:34;12.00;99.90
18321;DHT22;54904;54.350;18.664;2022-10-22T07:43:01;12.10;99.90
18321;DHT22;54904;54.350;18.664;2022-10-22T07:45:28;12.10;99.90
18321;DHT22;54904;54.350;18.664;2022-10-22T07:47:56;12.10;99.90
18321;DHT22;54904;54.350;18.664;2022-10-22T07:50:24;12.10;99.90
18321;DHT22;54904;54.350;18.664;2022-10-22T07:52:51;12.10;99.90
18321;DHT22;54904;54.350;18.664;2022-10-22T07:55:20;12.10;99.90
18321;DHT22;54904;54.350;18.664;2022-10-22T07:57:47;12.20;99.90
18321;DHT22;54904;54.350;18.664;2022-10-22T08:00:15;12.20;99.90
18321;DHT22;54904;54.350;18.664;2022-10-22T08:02:44;12.20;99.90
18321;DHT22;54904;54.350;18.664;2022-10-22T08:05:12;12.20;99.90
18321;DHT22;54904;54.350;18.664;2022-10-22T08:07:39;12.20;99.90
18321;DHT22;54904;54.350;18.664;2022-10-22T08:10:07;12.20;99.90
18321;DHT22;54904;54.350;18.664;2022-10-22T08:12:37;12.20;99.90
18321;DHT22;54904;54.350;18.664;2022-10-22T08:15:05;12.20;99.90
18321;DHT22;54904;54.350;18.664;2022-10-22T08:17:32;12.20;99.90
18321;DHT22;54904;54.350;18.664;2022-10-22T08:19:59;12.20;99.90
18321;DHT22;54904;54.350;18.664;2022-10-22T08:22:27;12.20;99.90
18321;DHT22;54904;54.350;18.664;2022-10-22T08:24:54;12.30;99.90
18321;DHT22;54904;54.350;18.664;2022-10-22T08:27:21;12.30;99.90
18321;DHT22;54904;54.350;18.664;2022-10-22T08:29:50;12.40;99.90
18321;DHT22;54904;54.350;18.664;2022-10-22T08:32:17;12.40;99.90
18321;DHT22;54904;54.350;18.664;2022-10-22T08:34:44;12.40;99.90
18321;DHT22;54904;54.350;18.664;2022-10-22T08:37:11;12.50;99.90
18321;DHT22;54904;54.350;18.664;2022-10-22T08:39:39;12.50;99.90
18321;DHT22;54904;54.350;18.664;2022-10-22T08:42:25;12.50;99.90
18321;DHT22;54904;54.350;18.664;2022-10-22T08:45:06;12.50;99.90
18321;DHT22;54904;54.350;18.664;2022-10-22T08:47:48;12.50;99.90
18321;DHT22;54904;54.350;18.664;2022-10-22T08:50:28;12.50;99.90
18321;DHT22;54904;54.350;18.664;2022-10-22T08:52:59;12.50;99.90
18321;DHT22;54904;54.350;18.664;2022-10-22T08:55:29;12.50;99.90
18321;DHT22;54904;54.350;18.664;2022-10-22T08:58:02;12.50;99.90
18321;DHT22;54904;54.350;18.664;2022-10-22T09:00:35;12.50;99.90
18321;DHT22;54904;54.350;18.664;2022-10-22T09:03:15;12.60;99.90
18321;DHT22;54904;54.350;18.664;2022-10-22T09:06:00;12.60;99.90
18321;DHT22;54904;54.350;18.664;2022-10-22T09:08:28;12.60;99.90
18321;DHT22;54904;54.350;18.664;2022-10-22T09:11:00;12.60;99.90
18321;DHT22;54904;54.350;18.664;2022-10-22T09:13:28;12.60;99.90
18321;DHT22;54904;54.350;18.664;2022-10-22T09:15:59;12.60;99.90
18321;DHT22;54904;54.350;18.664;2022-10-22T09:18:34;12.60;99.90
18321;DHT22;54904;54.350;18.664;2022-10-22T09:21:05;12.60;99.90
18321;DHT22;54904;54.350;18.664;2022-10-22T09:23:39;12.70;99.90
18321;DHT22;54904;54.350;18.664;2022-10-22T09:26:15;12.70;99.90
18321;DHT22;54904;54.350;18.664;2022-10-22T09:28:43;12.70;99.90
18321;DHT22;54904;54.350;18.664;2022-10-22T09:31:16;12.70;99.90
18321;DHT22;54904;54.350;18.664;2022-10-22T09:33:45;12.70;99.90
18321;DHT22;54904;54.350;18.664;2022-10-22T09:36:16;12.70;99.90
18321;DHT22;54904;54.350;18.664;2022-10-22T09:38:48;12.80;99.90
18321;DHT22;54904;54.350;18.664;2022-10-22T09:41:16;12.80;99.90
18321;DHT22;54904;54.350;18.664;2022-10-22T09:43:46;12.80;99.90
18321;DHT22;54904;54.350;18.664;2022-10-22T09:46:17;12.80;99.90
18321;DHT22;54904;54.350;18.664;2022-10-22T09:48:48;12.80;99.90
18321;DHT22;54904;54.350;18.664;2022-10-22T09:51:19;12.80;99.90
18321;DHT22;54904;54.350;18.664;2022-10-22T09:53:54;12.90;99.90
18321;DHT22;54904;54.350;18.664;2022-10-22T09:56:25;12.90;99.90
18321;DHT22;54904;54.350;18.664;2022-10-22T09:58:55;12.90;99.90
18321;DHT22;54904;54.350;18.664;2022-10-22T10:01:26;12.90;99.90
18321;DHT22;54904;54.350;18.664;2022-10-22T10:04:02;12.90;99.90
18321;DHT22;54904;54.350;18.664;2022-10-22T10:06:32;12.90;99.90
18321;DHT22;54904;54.350;18.664;2022-10-22T10:09:00;13.00;99.90
18321;DHT22;54904;54.350;18.664;2022-10-22T10:11:36;13.00;99.90
18321;DHT22;54904;54.350;18.664;2022-10-22T10:14:08;13.00;99.90
18321;DHT22;54904;54.350;18.664;2022-10-22T10:16:47;13.00;99.90
18321;DHT22;54904;54.350;18.664;2022-10-22T10:19:36;13.00;99.90
18321;DHT22;54904;54.350;18.664;2022-10-22T10:22:13;13.10;99.90
18321;DHT22;54904;54.350;18.664;2022-10-22T10:24:54;13.10;99.90
18321;DHT22;54904;54.350;18.664;2022-10-22T10:27:32;13.20;99.90
18321;DHT22;54904;54.350;18.664;2022-10-22T10:30:04;13.20;99.90
18321;DHT22;54904;54.350;18.664;2022-10-22T10:32:55;13.30;99.90
18321;DHT22;54904;54.350;18.664;2022-10-22T10:35:30;13.30;99.90
18321;DHT22;54904;54.350;18.664;2022-10-22T10:38:12;13.30;99.90
18321;DHT22;54904;54.350;18.664;2022-10-22T10:40:48;13.40;99.90
18321;DHT22;54904;54.350;18.664;2022-10-22T10:43:21;13.40;99.90
18321;DHT22;54904;54.350;18.664;2022-10-22T10:45:58;13.40;99.90
18321;DHT22;54904;54.350;18.664;2022-10-22T10:48:48;13.40;99.90
18321;DHT22;54904;54.350;18.664;2022-10-22T10:51:36;13.50;99.90
18321;DHT22;54904;54.350;18.664;2022-10-22T10:54:24;13.60;99.90
18321;DHT22;54904;54.350;18.664;2022-10-22T10:56:56;13.60;99.90
18321;DHT22;54904;54.350;18.664;2022-10-22T10:59:52;13.60;99.90
18321;DHT22;54904;54.350;18.664;2022-10-22T11:02:49;13.70;99.90
18321;DHT22;54904;54.350;18.664;2022-10-22T11:05:35;13.80;99.90
18321;DHT22;54904;54.350;18.664;2022-10-22T11:08:10;13.80;99.90
18321;DHT22;54904;54.350;18.664;2022-10-22T11:10:43;13.80;99.90
18321;DHT22;54904;54.350;18.664;2022-10-22T11:13:16;13.80;99.90
18321;DHT22;54904;54.350;18.664;2022-10-22T11:15:47;13.80;99.90
18321;DHT22;54904;54.350;18.664;2022-10-22T11:18:21;13.80;99.90
18321;DHT22;54904;54.350;18.664;2022-10-22T11:20:56;14.00;99.90
18321;DHT22;54904;54.350;18.664;2022-10-22T11:23:31;13.90;99.90
18321;DHT22;54904;54.350;18.664;2022-10-22T11:26:00;13.90;99.90
18321;DHT22;54904;54.350;18.664;2022-10-22T11:28:32;13.90;99.90
18321;DHT22;54904;54.350;18.664;2022-10-22T11:31:05;14.00;99.90
18321;DHT22;54904;54.350;18.664;2022-10-22T11:33:42;13.90;99.90
18321;DHT22;54904;54.350;18.664;2022-10-22T11:36:13;14.00;99.90
18321;DHT22;54904;54.350;18.664;2022-10-22T11:38:41;14.00;99.90
18321;DHT22;54904;54.350;18.664;2022-10-22T11:41:18;14.70;99.90
18321;DHT22;54904;54.350;18.664;2022-10-22T11:43:56;14.00;99.90
18321;DHT22;54904;54.350;18.664;2022-10-22T11:46:33;14.10;99.90
18321;DHT22;54904;54.350;18.664;2022-10-22T11:49:13;14.10;99.90
18321;DHT22;54904;54.350;18.664;2022-10-22T11:51:43;14.10;99.90
18321;DHT22;54904;54.350;18.664;2022-10-22T11:54:37;14.10;99.90
18321;DHT22;54904;54.350;18.664;2022-10-22T11:57:20;14.10;99.90
18321;DHT22;54904;54.350;18.664;2022-10-22T11:59:52;14.10;99.90
18321;DHT22;54904;54.350;18.664;2022-10-22T12:02:40;14.10;99.90
18321;DHT22;54904;54.350;18.664;2022-10-22T12:05:29;14.10;99.90
18321;DHT22;54904;54.350;18.664;2022-10-22T12:08:01;14.10;99.90
18321;DHT22;54904;54.350;18.664;2022-10-22T12:10:35;14.10;99.90
18321;DHT22;54904;54.350;18.664;2022-10-22T12:13:11;14.10;99.90
18321;DHT22;54904;54.350;18.664;2022-10-22T12:15:47;14.10;99.90
18321;DHT22;54904;54.350;18.664;2022-10-22T12:18:15;14.10;99.90
18321;DHT22;54904;54.350;18.664;2022-10-22T12:20:43;14.10;99.90
18321;DHT22;54904;54.350;18.664;2022-10-22T12:23:15;14.10;99.90
18321;DHT22;54904;54.350;18.664;2022-10-22T12:25:42;14.20;99.90
18321;DHT22;54904;54.350;18.664;2022-10-22T12:28:12;14.20;99.90
18321;DHT22;54904;54.350;18.664;2022-10-22T12:30:41;14.20;99.90
18321;DHT22;54904;54.350;18.664;2022-10-22T12:33:18;14.20;99.90
18321;DHT22;54904;54.350;18.664;2022-10-22T12:35:47;14.20;99.90
18321;DHT22;54904;54.350;18.664;2022-10-22T12:38:19;14.20;99.90
18321;DHT22;54904;54.350;18.664;2022-10-22T12:40:47;14.20;99.90
18321;DHT22;54904;54.350;18.664;2022-10-22T12:43:18;14.20;99.90
18321;DHT22;54904;54.350;18.664;2022-10-22T12:45:46;14.30;99.90
18321;DHT22;54904;54.350;18.664;2022-10-22T12:48:16;14.30;99.90
18321;DHT22;54904;54.350;18.664;2022-10-22T12:50:48;14.30;99.90
18321;DHT22;54904;54.350;18.664;2022-10-22T12:53:18;14.30;99.90
18321;DHT22;54904;54.350;18.664;2022-10-22T12:55:49;14.30;99.90
18321;DHT22;54904;54.350;18.664;2022-10-22T12:58:20;14.30;99.90
18321;DHT22;54904;54.350;18.664;2022-10-22T13:00:52;14.30;99.90
18321;DHT22;54904;54.350;18.664;2022-10-22T13:03:30;14.30;99.90
18321;DHT22;54904;54.350;18.664;2022-10-22T13:06:11;14.40;99.90
18321;DHT22;54904;54.350;18.664;2022-10-22T13:08:39;14.30;99.90
18321;DHT22;54904;54.350;18.664;2022-10-22T13:11:07;14.40;99.90
18321;DHT22;54904;54.350;18.664;2022-10-22T13:13:42;14.40;99.90
18321;DHT22;54904;54.350;18.664;2022-10-22T13:16:16;14.40;99.90
18321;DHT22;54904;54.350;18.664;2022-10-22T13:18:44;14.40;99.90
18321;DHT22;54904;54.350;18.664;2022-10-22T13:21:23;14.40;99.90
18321;DHT22;54904;54.350;18.664;2022-10-22T13:23:54;14.40;99.90
18321;DHT22;54904;54.350;18.664;2022-10-22T13:26:22;14.40;99.90
18321;DHT22;54904;54.350;18.664;2022-10-22T13:28:54;14.50;99.90
18321;DHT22;54904;54.350;18.664;2022-10-22T13:31:23;14.40;99.90
18321;DHT22;54904;54.350;18.664;2022-10-22T13:33:54;14.50;99.90
18321;DHT22;54904;54.350;18.664;2022-10-22T13:36:22;14.50;99.90
18321;DHT22;54904;54.350;18.664;2022-10-22T13:38:50;14.50;99.90
18321;DHT22;54904;54.350;18.664;2022-10-22T13:41:18;14.50;99.90
18321;DHT22;54904;54.350;18.664;2022-10-22T13:43:46;14.50;99.90
18321;DHT22;54904;54.350;18.664;2022-10-22T13:46:15;14.50;99.90
18321;DHT22;54904;54.350;18.664;2022-10-22T13:48:43;14.50;99.90
18321;DHT22;54904;54.350;18.664;2022-10-22T13:51:14;14.50;99.90
18321;DHT22;54904;54.350;18.664;2022-10-22T13:53:42;14.60;99.90
18321;DHT22;54904;54.350;18.664;2022-10-22T13:56:13;14.60;99.90
18321;DHT22;54904;54.350;18.664;2022-10-22T13:58:41;14.60;99.90
18321;DHT22;54904;54.350;18.664;2022-10-22T14:01:19;14.60;99.90
18321;DHT22;54904;54.350;18.664;2022-10-22T14:03:47;14.60;99.90
18321;DHT22;54904;54.350;18.664;2022-10-22T14:06:15;14.60;99.90
18321;DHT22;54904;54.350;18.664;2022-10-22T14:08:45;14.60;99.90
18321;DHT22;54904;54.350;18.664;2022-10-22T14:11:13;14.60;99.90
18321;DHT22;54904;54.350;18.664;2022-10-22T14:13:40;14.60;99.90
18321;DHT22;54904;54.350;18.664;2022-10-22T14:16:14;14.60;99.90
18321;DHT22;54904;54.350;18.664;2022-10-22T14:18:44;14.70;99.90
18321;DHT22;54904;54.350;18.664;2022-10-22T14:21:33;14.60;99.90
18321;DHT22;54904;54.350;18.664;2022-10-22T14:24:01;14.70;99.90
18321;DHT22;54904;54.350;18.664;2022-10-22T14:26:30;14.70;99.90
18321;DHT22;54904;54.350;18.664;2022-10-22T14:28:58;14.70;99.90
18321;DHT22;54904;54.350;18.664;2022-10-22T14:31:25;14.70;99.90
18321;DHT22;54904;54.350;18.664;2022-10-22T14:33:54;14.70;99.90
18321;DHT22;54904;54.350;18.664;2022-10-22T14:36:21;14.70;99.90
18321;DHT22;54904;54.350;18.664;2022-10-22T14:38:49;14.70;99.90
18321;DHT22;54904;54.350;18.664;2022-10-22T14:41:20;14.70;99.90
18321;DHT22;54904;54.350;18.664;2022-10-22T14:43:47;14.70;99.90
18321;DHT22;54904;54.350;18.664;2022-10-22T14:46:16;14.80;99.90
18321;DHT22;54904;54.350;18.664;2022-10-22T14:48:44;14.80;99.90
18321;DHT22;54904;54.350;18.664;2022-10-22T14:51:15;14.80;99.90
18321;DHT22;54904;54.350;18.664;2022-10-22T14:53:42;14.80;99.90
18321;DHT22;54904;54.350;18.664;2022-10-22T14:56:11;14.80;99.90
18321;DHT22;54904;54.350;18.664;2022-10-22T14:58:38;14.80;99.90
18321;DHT22;54904;54.350;18.664;2022-10-22T15:01:06;14.80;99.90
18321;DHT22;54904;54.350;18.664;2022-10-22T15:03:34;14.80;99.90
18321;DHT22;54904;54.350;18.664;2022-10-22T15:06:01;14.80;99.90
18321;DHT22;54904;54.350;18.664;2022-10-22T15:08:30;14.80;99.90
18321;DHT22;54904;54.350;18.664;2022-10-22T15:10:58;14.80;99.90
18321;DHT22;54904;54.350;18.664;2022-10-22T15:13:26;14.80;99.90
18321;DHT22;54904;54.350;18.664;2022-10-22T15:15:54;14.80;99.90
18321;DHT22;54904;54.350;18.664;2022-10-22T15:18:22;14.80;99.90
18321;DHT22;54904;54.350;18.664;2022-10-22T15:20:57;14.90;99.90
18321;DHT22;54904;54.350;18.664;2022-10-22T15:23:25;14.80;99.90
18321;DHT22;54904;54.350;18.664;2022-10-22T15:25:54;14.80;99.90
18321;DHT22;54904;54.350;18.664;2022-10-22T15:28:22;14.80;99.90
18321;DHT22;54904;54.350;18.664;2022-10-22T15:30:53;14.90;99.90
18321;DHT22;54904;54.350;18.664;2022-10-22T15:33:21;14.90;99.90
18321;DHT22;54904;54.350;18.664;2022-10-22T15:35:48;14.90;99.90
18321;DHT22;54904;54.350;18.664;2022-10-22T15:38:15;14.90;99.90